sensor_id;sensor_type;location;lat;lon;timestamp;P1;durP1;ratioP1;P2;durP2;ratioP2
50495;SDS011;38806;51.554;5.704;2024-02-16T00:01:15;8.90;;;4.18;;
50495;SDS011;38806;51.554;5.704;2024-02-16T00:03:16;6.45;;;3.50;;
50495;SDS011;38806;51.554;5.704;2024-02-16T00:05:16;5.97;;;3.50;;
50495;SDS011;38806;51.554;5.704;2024-02-16T00:07:16;7.22;;;3.33;;
50495;SDS011;38806;51.554;5.704;2024-02-16T00:09:16;6.80;;;3.78;;
50495;SDS011;38806;51.554;5.704;2024-02-16T00:11:18;7.53;;;4.00;;
50495;SDS011;38806;51.554;5.704;2024-02-16T00:13:18;10.00;;;4.18;;
50495;SDS011;38806;51.554;5.704;2024-02-16T00:15:18;8.30;;;5.57;;
50495;SDS011;38806;51.554;5.704;2024-02-16T00:17:20;8.13;;;3.80;;
50495;SDS011;38806;51.554;5.704;2024-02-16T00:19:21;7.18;;;3.80;;
50495;SDS011;38806;51.554;5.704;2024-02-16T00:21:22;6.97;;;3.33;;
50495;SDS011;38806;51.554;5.704;2024-02-16T00:23:22;9.68;;;4.15;;
50495;SDS011;38806;51.554;5.704;2024-02-16T00:25:24;6.63;;;3.92;;
50495;SDS011;38806;51.554;5.704;2024-02-16T00:27:24;8.30;;;4.00;;
50495;SDS011;38806;51.554;5.704;2024-02-16T00:29:24;7.72;;;4.40;;
50495;SDS011;38806;51.554;5.704;2024-02-16T00:31:24;11.32;;;4.38;;
50495;SDS011;38806;51.554;5.704;2024-02-16T00:33:25;10.00;;;3.85;;
50495;SDS011;38806;51.554;5.704;2024-02-16T00:35:25;8.10;;;4.15;;
50495;SDS011;38806;51.554;5.704;2024-02-16T00:37:25;8.18;;;4.40;;
50495;SDS011;38806;51.554;5.704;2024-02-16T00:39:25;11.23;;;4.15;;
50495;SDS011;38806;51.554;5.704;2024-02-16T00:41:26;8.73;;;3.83;;
50495;SDS011;38806;51.554;5.704;2024-02-16T00:43:26;9.52;;;4.63;;
50495;SDS011;38806;51.554;5.704;2024-02-16T00:45:27;7.93;;;4.72;;
50495;SDS011;38806;51.554;5.704;2024-02-16T00:47:27;7.28;;;3.58;;
50495;SDS011;38806;51.554;5.704;2024-02-16T00:49:27;6.00;;;3.72;;
50495;SDS011;38806;51.554;5.704;2024-02-16T00:51:28;8.17;;;3.90;;
50495;SDS011;38806;51.554;5.704;2024-02-16T00:53:29;8.70;;;5.13;;
50495;SDS011;38806;51.554;5.704;2024-02-16T00:55:29;9.47;;;3.37;;
50495;SDS011;38806;51.554;5.704;2024-02-16T00:57:30;7.25;;;4.47;;
50495;SDS011;38806;51.554;5.704;2024-02-16T00:59:30;9.77;;;4.00;;
50495;SDS011;38806;51.554;5.704;2024-02-16T01:01:30;8.25;;;3.78;;
50495;SDS011;38806;51.554;5.704;2024-02-16T01:03:31;10.27;;;4.50;;
50495;SDS011;38806;51.554;5.704;2024-02-16T01:05:31;7.05;;;4.15;;
50495;SDS011;38806;51.554;5.704;2024-02-16T01:07:31;13.82;;;4.82;;
50495;SDS011;38806;51.554;5.704;2024-02-16T01:09:32;7.85;;;4.68;;
50495;SDS011;38806;51.554;5.704;2024-02-16T01:11:32;9.10;;;3.92;;
50495;SDS011;38806;51.554;5.704;2024-02-16T01:13:32;6.70;;;3.45;;
50495;SDS011;38806;51.554;5.704;2024-02-16T01:15:33;8.45;;;3.70;;
50495;SDS011;38806;51.554;5.704;2024-02-16T01:17:33;7.20;;;3.40;;
50495;SDS011;38806;51.554;5.704;2024-02-16T01:19:33;6.32;;;3.65;;
50495;SDS011;38806;51.554;5.704;2024-02-16T01:21:34;8.18;;;4.00;;
50495;SDS011;38806;51.554;5.704;2024-02-16T01:23:34;8.80;;;4.47;;
50495;SDS011;38806;51.554;5.704;2024-02-16T01:25:34;8.20;;;4.38;;
50495;SDS011;38806;51.554;5.704;2024-02-16T01:27:35;7.97;;;3.90;;
50495;SDS011;38806;51.554;5.704;2024-02-16T01:29:35;8.27;;;4.00;;
50495;SDS011;38806;51.554;5.704;2024-02-16T01:31:35;8.80;;;4.00;;
50495;SDS011;38806;51.554;5.704;2024-02-16T01:33:37;7.25;;;3.38;;
50495;SDS011;38806;51.554;5.704;2024-02-16T01:35:37;7.38;;;3.67;;
50495;SDS011;38806;51.554;5.704;2024-02-16T01:37:37;7.97;;;3.70;;
50495;SDS011;38806;51.554;5.704;2024-02-16T01:39:37;6.93;;;4.55;;
50495;SDS011;38806;51.554;5.704;2024-02-16T01:41:38;7.72;;;3.80;;
50495;SDS011;38806;51.554;5.704;2024-02-16T01:43:38;9.32;;;4.13;;
50495;SDS011;38806;51.554;5.704;2024-02-16T01:45:38;8.07;;;3.55;;
50495;SDS011;38806;51.554;5.704;2024-02-16T01:47:39;7.25;;;4.57;;
50495;SDS011;38806;51.554;5.704;2024-02-16T01:49:41;8.80;;;3.85;;
50495;SDS011;38806;51.554;5.704;2024-02-16T01:51:42;6.25;;;4.03;;
50495;SDS011;38806;51.554;5.704;2024-02-16T01:53:42;8.27;;;3.65;;
50495;SDS011;38806;51.554;5.704;2024-02-16T01:55:42;7.75;;;3.80;;
50495;SDS011;38806;51.554;5.704;2024-02-16T01:57:43;7.20;;;3.85;;
50495;SDS011;38806;51.554;5.704;2024-02-16T01:59:43;8.13;;;3.40;;
50495;SDS011;38806;51.554;5.704;2024-02-16T02:01:45;7.40;;;3.38;;
50495;SDS011;38806;51.554;5.704;2024-02-16T02:03:45;4.90;;;2.90;;
50495;SDS011;38806;51.554;5.704;2024-02-16T02:05:46;6.38;;;4.03;;
50495;SDS011;38806;51.554;5.704;2024-02-16T02:07:46;7.03;;;4.05;;
50495;SDS011;38806;51.554;5.704;2024-02-16T02:09:47;7.22;;;3.83;;
50495;SDS011;38806;51.554;5.704;2024-02-16T02:11:47;8.60;;;4.57;;
50495;SDS011;38806;51.554;5.704;2024-02-16T02:13:47;8.40;;;4.43;;
50495;SDS011;38806;51.554;5.704;2024-02-16T02:15:47;6.45;;;3.58;;
50495;SDS011;38806;51.554;5.704;2024-02-16T02:17:48;7.28;;;4.40;;
50495;SDS011;38806;51.554;5.704;2024-02-16T02:19:48;8.45;;;4.13;;
50495;SDS011;38806;51.554;5.704;2024-02-16T02:21:49;6.18;;;3.08;;
50495;SDS011;38806;51.554;5.704;2024-02-16T02:23:50;5.97;;;3.30;;
50495;SDS011;38806;51.554;5.704;2024-02-16T02:25:51;8.43;;;3.40;;
50495;SDS011;38806;51.554;5.704;2024-02-16T02:27:51;7.45;;;4.07;;
50495;SDS011;38806;51.554;5.704;2024-02-16T02:29:51;6.60;;;2.95;;
50495;SDS011;38806;51.554;5.704;2024-02-16T02:31:51;8.25;;;3.83;;
50495;SDS011;38806;51.554;5.704;2024-02-16T02:33:52;8.13;;;4.18;;
50495;SDS011;38806;51.554;5.704;2024-02-16T02:35:52;12.00;;;3.65;;
50495;SDS011;38806;51.554;5.704;2024-02-16T02:37:52;9.43;;;3.58;;
50495;SDS011;38806;51.554;5.704;2024-02-16T02:39:52;7.83;;;3.57;;
50495;SDS011;38806;51.554;5.704;2024-02-16T02:41:52;5.85;;;3.10;;
50495;SDS011;38806;51.554;5.704;2024-02-16T02:43:53;5.68;;;3.85;;
50495;SDS011;38806;51.554;5.704;2024-02-16T02:45:53;5.97;;;3.25;;
50495;SDS011;38806;51.554;5.704;2024-02-16T02:47:53;7.47;;;3.23;;
50495;SDS011;38806;51.554;5.704;2024-02-16T02:49:54;5.07;;;3.05;;
50495;SDS011;38806;51.554;5.704;2024-02-16T02:51:54;8.82;;;4.25;;
50495;SDS011;38806;51.554;5.704;2024-02-16T02:53:54;4.47;;;3.30;;
50495;SDS011;38806;51.554;5.704;2024-02-16T02:55:54;6.75;;;3.40;;
50495;SDS011;38806;51.554;5.704;2024-02-16T02:57:54;8.05;;;3.08;;
50495;SDS011;38806;51.554;5.704;2024-02-16T03:00:02;5.80;;;2.72;;
50495;SDS011;38806;51.554;5.704;2024-02-16T03:02:02;5.90;;;3.53;;
50495;SDS011;38806;51.554;5.704;2024-02-16T03:04:03;5.80;;;3.20;;
50495;SDS011;38806;51.554;5.704;2024-02-16T03:06:03;7.93;;;3.42;;
50495;SDS011;38806;51.554;5.704;2024-02-16T03:08:03;5.15;;;2.97;;
50495;SDS011;38806;51.554;5.704;2024-02-16T03:10:04;6.03;;;4.18;;
50495;SDS011;38806;51.554;5.704;2024-02-16T03:12:04;6.15;;;2.95;;
50495;SDS011;38806;51.554;5.704;2024-02-16T03:14:05;5.75;;;3.22;;
50495;SDS011;38806;51.554;5.704;2024-02-16T03:16:05;6.88;;;2.92;;
50495;SDS011;38806;51.554;5.704;2024-02-16T03:18:05;8.15;;;2.90;;
50495;SDS011;38806;51.554;5.704;2024-02-16T03:20:08;6.70;;;2.90;;
50495;SDS011;38806;51.554;5.704;2024-02-16T03:22:09;8.52;;;3.58;;
50495;SDS011;38806;51.554;5.704;2024-02-16T03:24:09;4.65;;;2.40;;
50495;SDS011;38806;51.554;5.704;2024-02-16T03:26:19;8.57;;;3.00;;
50495;SDS011;38806;51.554;5.704;2024-02-16T03:28:20;7.35;;;3.63;;
50495;SDS011;38806;51.554;5.704;2024-02-16T03:30:20;6.13;;;3.08;;
50495;SDS011;38806;51.554;5.704;2024-02-16T03:32:22;10.25;;;3.38;;
50495;SDS011;38806;51.554;5.704;2024-02-16T03:34:22;7.65;;;4.07;;
50495;SDS011;38806;51.554;5.704;2024-02-16T03:36:23;6.90;;;3.20;;
50495;SDS011;38806;51.554;5.704;2024-02-16T03:38:23;8.43;;;3.25;;
50495;SDS011;38806;51.554;5.704;2024-02-16T03:40:23;6.55;;;3.40;;
50495;SDS011;38806;51.554;5.704;2024-02-16T03:42:24;6.05;;;2.95;;
50495;SDS011;38806;51.554;5.704;2024-02-16T03:44:25;6.18;;;3.53;;
50495;SDS011;38806;51.554;5.704;2024-02-16T03:46:25;5.83;;;3.10;;
50495;SDS011;38806;51.554;5.704;2024-02-16T03:48:25;8.65;;;3.53;;
50495;SDS011;38806;51.554;5.704;2024-02-16T03:50:25;5.30;;;2.87;;
50495;SDS011;38806;51.554;5.704;2024-02-16T03:52:25;8.57;;;3.35;;
50495;SDS011;38806;51.554;5.704;2024-02-16T03:54:26;4.25;;;2.92;;
50495;SDS011;38806;51.554;5.704;2024-02-16T03:56:26;10.27;;;3.53;;
50495;SDS011;38806;51.554;5.704;2024-02-16T03:58:26;6.18;;;3.47;;
50495;SDS011;38806;51.554;5.704;2024-02-16T04:00:26;7.38;;;3.33;;
50495;SDS011;38806;51.554;5.704;2024-02-16T04:02:27;6.00;;;3.20;;
50495;SDS011;38806;51.554;5.704;2024-02-16T04:04:27;8.60;;;4.57;;
50495;SDS011;38806;51.554;5.704;2024-02-16T04:06:27;8.10;;;4.03;;
50495;SDS011;38806;51.554;5.704;2024-02-16T04:08:27;7.60;;;3.80;;
50495;SDS011;38806;51.554;5.704;2024-02-16T04:10:27;10.15;;;3.67;;
50495;SDS011;38806;51.554;5.704;2024-02-16T04:12:30;7.93;;;3.38;;
50495;SDS011;38806;51.554;5.704;2024-02-16T04:14:30;7.68;;;4.30;;
50495;SDS011;38806;51.554;5.704;2024-02-16T04:16:30;6.57;;;3.63;;
50495;SDS011;38806;51.554;5.704;2024-02-16T04:18:31;8.18;;;3.50;;
50495;SDS011;38806;51.554;5.704;2024-02-16T04:20:31;7.22;;;3.45;;
50495;SDS011;38806;51.554;5.704;2024-02-16T04:22:32;5.95;;;2.97;;
50495;SDS011;38806;51.554;5.704;2024-02-16T04:24:37;8.05;;;3.15;;
50495;SDS011;38806;51.554;5.704;2024-02-16T04:26:37;8.07;;;3.65;;
50495;SDS011;38806;51.554;5.704;2024-02-16T04:28:37;6.70;;;3.27;;
50495;SDS011;38806;51.554;5.704;2024-02-16T04:30:39;10.30;;;3.75;;
50495;SDS011;38806;51.554;5.704;2024-02-16T04:32:39;6.23;;;3.37;;
50495;SDS011;38806;51.554;5.704;2024-02-16T04:34:39;7.83;;;3.50;;
50495;SDS011;38806;51.554;5.704;2024-02-16T04:36:40;6.70;;;3.25;;
50495;SDS011;38806;51.554;5.704;2024-02-16T04:38:41;9.23;;;3.72;;
50495;SDS011;38806;51.554;5.704;2024-02-16T04:40:41;8.83;;;3.63;;
50495;SDS011;38806;51.554;5.704;2024-02-16T04:42:41;7.05;;;3.90;;
50495;SDS011;38806;51.554;5.704;2024-02-16T04:44:41;6.22;;;3.50;;
50495;SDS011;38806;51.554;5.704;2024-02-16T04:46:41;8.20;;;4.25;;
50495;SDS011;38806;51.554;5.704;2024-02-16T04:48:42;8.25;;;3.78;;
50495;SDS011;38806;51.554;5.704;2024-02-16T04:50:42;8.20;;;3.75;;
50495;SDS011;38806;51.554;5.704;2024-02-16T04:52:42;8.27;;;2.90;;
50495;SDS011;38806;51.554;5.704;2024-02-16T04:54:44;6.03;;;3.15;;
50495;SDS011;38806;51.554;5.704;2024-02-16T04:56:44;6.03;;;3.38;;
50495;SDS011;38806;51.554;5.704;2024-02-16T04:58:44;7.68;;;4.05;;
50495;SDS011;38806;51.554;5.704;2024-02-16T05:00:45;6.72;;;3.28;;
50495;SDS011;38806;51.554;5.704;2024-02-16T05:02:46;7.57;;;3.38;;
50495;SDS011;38806;51.554;5.704;2024-02-16T05:04:47;6.25;;;3.85;;
50495;SDS011;38806;51.554;5.704;2024-02-16T05:06:47;7.75;;;4.10;;
50495;SDS011;38806;51.554;5.704;2024-02-16T05:08:47;7.35;;;3.25;;
50495;SDS011;38806;51.554;5.704;2024-02-16T05:10:47;7.80;;;3.57;;
50495;SDS011;38806;51.554;5.704;2024-02-16T05:12:47;7.72;;;3.60;;
50495;SDS011;38806;51.554;5.704;2024-02-16T05:14:49;8.02;;;4.82;;
50495;SDS011;38806;51.554;5.704;2024-02-16T05:16:49;10.77;;;4.55;;
50495;SDS011;38806;51.554;5.704;2024-02-16T05:18:50;6.78;;;3.72;;
50495;SDS011;38806;51.554;5.704;2024-02-16T05:20:50;8.07;;;3.55;;
50495;SDS011;38806;51.554;5.704;2024-02-16T05:22:51;6.82;;;3.67;;
50495;SDS011;38806;51.554;5.704;2024-02-16T05:24:51;6.35;;;3.42;;
50495;SDS011;38806;51.554;5.704;2024-02-16T05:26:51;9.00;;;3.47;;
50495;SDS011;38806;51.554;5.704;2024-02-16T05:28:51;9.10;;;4.20;;
50495;SDS011;38806;51.554;5.704;2024-02-16T05:30:52;7.60;;;3.33;;
50495;SDS011;38806;51.554;5.704;2024-02-16T05:32:52;5.37;;;2.97;;
50495;SDS011;38806;51.554;5.704;2024-02-16T05:34:53;7.00;;;3.80;;
50495;SDS011;38806;51.554;5.704;2024-02-16T05:36:53;7.93;;;3.43;;
50495;SDS011;38806;51.554;5.704;2024-02-16T05:38:53;7.22;;;3.15;;
50495;SDS011;38806;51.554;5.704;2024-02-16T05:40:55;10.18;;;4.07;;
50495;SDS011;38806;51.554;5.704;2024-02-16T05:42:57;5.78;;;3.25;;
50495;SDS011;38806;51.554;5.704;2024-02-16T05:44:58;7.13;;;2.97;;
50495;SDS011;38806;51.554;5.704;2024-02-16T05:46:58;15.13;;;3.33;;
50495;SDS011;38806;51.554;5.704;2024-02-16T05:48:58;8.70;;;3.40;;
50495;SDS011;38806;51.554;5.704;2024-02-16T05:51:00;9.80;;;3.58;;
50495;SDS011;38806;51.554;5.704;2024-02-16T05:53:00;8.57;;;4.40;;
50495;SDS011;38806;51.554;5.704;2024-02-16T05:55:01;8.25;;;3.72;;
50495;SDS011;38806;51.554;5.704;2024-02-16T05:57:01;6.85;;;3.88;;
50495;SDS011;38806;51.554;5.704;2024-02-16T05:59:01;7.23;;;4.27;;
50495;SDS011;38806;51.554;5.704;2024-02-16T06:01:02;5.95;;;4.15;;
50495;SDS011;38806;51.554;5.704;2024-02-16T06:03:02;7.13;;;3.53;;
50495;SDS011;38806;51.554;5.704;2024-02-16T06:05:02;6.72;;;3.08;;
50495;SDS011;38806;51.554;5.704;2024-02-16T06:07:03;6.20;;;3.17;;
50495;SDS011;38806;51.554;5.704;2024-02-16T06:09:03;6.00;;;3.70;;
50495;SDS011;38806;51.554;5.704;2024-02-16T06:11:09;7.78;;;3.65;;
50495;SDS011;38806;51.554;5.704;2024-02-16T06:13:10;6.15;;;3.20;;
50495;SDS011;38806;51.554;5.704;2024-02-16T06:15:11;9.90;;;3.90;;
50495;SDS011;38806;51.554;5.704;2024-02-16T06:17:11;6.93;;;3.85;;
50495;SDS011;38806;51.554;5.704;2024-02-16T06:19:14;9.13;;;3.60;;
50495;SDS011;38806;51.554;5.704;2024-02-16T06:21:14;5.90;;;3.80;;
50495;SDS011;38806;51.554;5.704;2024-02-16T06:23:15;4.82;;;3.35;;
50495;SDS011;38806;51.554;5.704;2024-02-16T06:25:17;7.35;;;3.72;;
50495;SDS011;38806;51.554;5.704;2024-02-16T06:27:17;10.10;;;3.85;;
50495;SDS011;38806;51.554;5.704;2024-02-16T06:29:17;8.53;;;4.80;;
50495;SDS011;38806;51.554;5.704;2024-02-16T06:31:19;9.30;;;4.20;;
50495;SDS011;38806;51.554;5.704;2024-02-16T06:33:19;7.32;;;3.55;;
50495;SDS011;38806;51.554;5.704;2024-02-16T06:35:19;9.17;;;4.67;;
50495;SDS011;38806;51.554;5.704;2024-02-16T06:37:20;7.15;;;3.80;;
50495;SDS011;38806;51.554;5.704;2024-02-16T06:39:20;7.90;;;4.28;;
50495;SDS011;38806;51.554;5.704;2024-02-16T06:41:20;6.18;;;3.58;;
50495;SDS011;38806;51.554;5.704;2024-02-16T06:43:20;8.03;;;4.10;;
50495;SDS011;38806;51.554;5.704;2024-02-16T06:45:20;6.25;;;2.95;;
50495;SDS011;38806;51.554;5.704;2024-02-16T06:47:20;9.32;;;3.92;;
50495;SDS011;38806;51.554;5.704;2024-02-16T06:49:23;9.75;;;3.67;;
50495;SDS011;38806;51.554;5.704;2024-02-16T06:51:23;10.52;;;3.53;;
50495;SDS011;38806;51.554;5.704;2024-02-16T06:53:24;8.18;;;4.82;;
50495;SDS011;38806;51.554;5.704;2024-02-16T06:55:24;6.88;;;3.45;;
50495;SDS011;38806;51.554;5.704;2024-02-16T06:57:24;7.78;;;3.13;;
50495;SDS011;38806;51.554;5.704;2024-02-16T06:59:25;5.88;;;2.72;;
50495;SDS011;38806;51.554;5.704;2024-02-16T07:01:25;9.82;;;2.83;;
50495;SDS011;38806;51.554;5.704;2024-02-16T07:03:27;6.95;;;2.95;;
50495;SDS011;38806;51.554;5.704;2024-02-16T07:05:27;10.98;;;3.92;;
50495;SDS011;38806;51.554;5.704;2024-02-16T07:07:28;6.68;;;3.55;;
50495;SDS011;38806;51.554;5.704;2024-02-16T07:09:28;10.05;;;2.97;;
50495;SDS011;38806;51.554;5.704;2024-02-16T07:11:29;5.00;;;2.55;;
50495;SDS011;38806;51.554;5.704;2024-02-16T07:13:29;6.30;;;2.90;;
50495;SDS011;38806;51.554;5.704;2024-02-16T07:15:29;5.60;;;2.97;;
50495;SDS011;38806;51.554;5.704;2024-02-16T07:17:29;6.65;;;2.67;;
50495;SDS011;38806;51.554;5.704;2024-02-16T07:19:29;5.07;;;2.40;;
50495;SDS011;38806;51.554;5.704;2024-02-16T07:21:29;8.30;;;4.15;;
50495;SDS011;38806;51.554;5.704;2024-02-16T07:23:30;5.25;;;2.75;;
50495;SDS011;38806;51.554;5.704;2024-02-16T07:25:30;6.95;;;2.92;;
50495;SDS011;38806;51.554;5.704;2024-02-16T07:27:30;6.20;;;2.35;;
50495;SDS011;38806;51.554;5.704;2024-02-16T07:29:30;6.07;;;2.70;;
50495;SDS011;38806;51.554;5.704;2024-02-16T07:31:34;8.07;;;3.25;;
50495;SDS011;38806;51.554;5.704;2024-02-16T07:33:34;6.68;;;3.97;;
50495;SDS011;38806;51.554;5.704;2024-02-16T07:35:35;7.43;;;3.40;;
50495;SDS011;38806;51.554;5.704;2024-02-16T07:37:38;10.70;;;3.95;;
50495;SDS011;38806;51.554;5.704;2024-02-16T07:39:38;8.30;;;2.40;;
50495;SDS011;38806;51.554;5.704;2024-02-16T07:41:39;5.18;;;3.60;;
50495;SDS011;38806;51.554;5.704;2024-02-16T07:43:39;7.93;;;3.78;;
50495;SDS011;38806;51.554;5.704;2024-02-16T07:45:39;6.32;;;2.65;;
50495;SDS011;38806;51.554;5.704;2024-02-16T07:47:42;9.60;;;3.10;;
50495;SDS011;38806;51.554;5.704;2024-02-16T07:49:43;8.20;;;3.10;;
50495;SDS011;38806;51.554;5.704;2024-02-16T07:51:43;5.90;;;2.65;;
50495;SDS011;38806;51.554;5.704;2024-02-16T07:53:44;7.15;;;2.60;;
50495;SDS011;38806;51.554;5.704;2024-02-16T07:55:46;7.20;;;3.22;;
50495;SDS011;38806;51.554;5.704;2024-02-16T07:57:46;5.00;;;2.87;;
50495;SDS011;38806;51.554;5.704;2024-02-16T07:59:47;7.75;;;2.65;;
50495;SDS011;38806;51.554;5.704;2024-02-16T08:01:47;6.77;;;3.67;;
50495;SDS011;38806;51.554;5.704;2024-02-16T08:03:47;7.95;;;2.58;;
50495;SDS011;38806;51.554;5.704;2024-02-16T08:05:48;5.95;;;3.05;;
50495;SDS011;38806;51.554;5.704;2024-02-16T08:07:48;6.47;;;3.03;;
50495;SDS011;38806;51.554;5.704;2024-02-16T08:09:48;6.32;;;2.90;;
50495;SDS011;38806;51.554;5.704;2024-02-16T08:11:49;6.13;;;2.75;;
50495;SDS011;38806;51.554;5.704;2024-02-16T08:13:49;5.80;;;3.13;;
50495;SDS011;38806;51.554;5.704;2024-02-16T08:15:49;9.52;;;4.72;;
50495;SDS011;38806;51.554;5.704;2024-02-16T08:17:51;5.70;;;2.47;;
50495;SDS011;38806;51.554;5.704;2024-02-16T08:19:52;7.55;;;3.10;;
50495;SDS011;38806;51.554;5.704;2024-02-16T08:21:56;6.55;;;3.90;;
50495;SDS011;38806;51.554;5.704;2024-02-16T08:23:56;6.35;;;3.08;;
50495;SDS011;38806;51.554;5.704;2024-02-16T08:25:56;12.05;;;3.08;;
50495;SDS011;38806;51.554;5.704;2024-02-16T08:27:57;6.85;;;3.40;;
50495;SDS011;38806;51.554;5.704;2024-02-16T08:29:58;8.73;;;4.07;;
50495;SDS011;38806;51.554;5.704;2024-02-16T08:31:58;6.50;;;3.22;;
50495;SDS011;38806;51.554;5.704;2024-02-16T08:33:58;8.10;;;2.93;;
50495;SDS011;38806;51.554;5.704;2024-02-16T08:35:58;6.80;;;3.20;;
50495;SDS011;38806;51.554;5.704;2024-02-16T08:37:59;6.65;;;3.17;;
50495;SDS011;38806;51.554;5.704;2024-02-16T08:39:59;7.15;;;2.75;;
50495;SDS011;38806;51.554;5.704;2024-02-16T08:41:59;13.93;;;6.03;;
50495;SDS011;38806;51.554;5.704;2024-02-16T08:43:59;8.30;;;3.58;;
50495;SDS011;38806;51.554;5.704;2024-02-16T08:45:59;6.93;;;3.23;;
50495;SDS011;38806;51.554;5.704;2024-02-16T08:48:00;7.13;;;3.45;;
50495;SDS011;38806;51.554;5.704;2024-02-16T08:50:02;7.40;;;3.05;;
50495;SDS011;38806;51.554;5.704;2024-02-16T08:52:03;7.85;;;3.58;;
50495;SDS011;38806;51.554;5.704;2024-02-16T08:54:03;6.93;;;3.25;;
50495;SDS011;38806;51.554;5.704;2024-02-16T08:56:08;5.95;;;3.40;;
50495;SDS011;38806;51.554;5.704;2024-02-16T08:58:09;13.10;;;5.15;;
50495;SDS011;38806;51.554;5.704;2024-02-16T09:00:09;5.85;;;3.47;;
50495;SDS011;38806;51.554;5.704;2024-02-16T09:02:09;6.63;;;3.47;;
50495;SDS011;38806;51.554;5.704;2024-02-16T09:04:10;6.97;;;3.22;;
50495;SDS011;38806;51.554;5.704;2024-02-16T09:06:10;6.63;;;3.47;;
50495;SDS011;38806;51.554;5.704;2024-02-16T09:08:10;8.32;;;4.53;;
50495;SDS011;38806;51.554;5.704;2024-02-16T09:10:11;9.23;;;4.05;;
50495;SDS011;38806;51.554;5.704;2024-02-16T09:12:11;8.52;;;4.65;;
50495;SDS011;38806;51.554;5.704;2024-02-16T09:14:12;8.13;;;3.05;;
50495;SDS011;38806;51.554;5.704;2024-02-16T09:16:12;5.97;;;3.80;;
50495;SDS011;38806;51.554;5.704;2024-02-16T09:18:12;6.85;;;2.90;;
50495;SDS011;38806;51.554;5.704;2024-02-16T09:20:13;6.53;;;3.30;;
50495;SDS011;38806;51.554;5.704;2024-02-16T09:22:14;7.70;;;3.70;;
50495;SDS011;38806;51.554;5.704;2024-02-16T09:24:14;16.63;;;4.63;;
50495;SDS011;38806;51.554;5.704;2024-02-16T09:26:17;7.75;;;3.83;;
50495;SDS011;38806;51.554;5.704;2024-02-16T09:28:18;9.55;;;3.78;;
50495;SDS011;38806;51.554;5.704;2024-02-16T09:30:19;6.43;;;3.75;;
50495;SDS011;38806;51.554;5.704;2024-02-16T09:32:21;8.63;;;3.70;;
50495;SDS011;38806;51.554;5.704;2024-02-16T09:34:22;9.05;;;3.75;;
50495;SDS011;38806;51.554;5.704;2024-02-16T09:36:23;9.23;;;4.13;;
50495;SDS011;38806;51.554;5.704;2024-02-16T09:38:24;9.07;;;3.10;;
50495;SDS011;38806;51.554;5.704;2024-02-16T09:40:26;8.93;;;4.15;;
50495;SDS011;38806;51.554;5.704;2024-02-16T09:42:26;6.10;;;3.55;;
50495;SDS011;38806;51.554;5.704;2024-02-16T09:44:27;6.30;;;3.33;;
50495;SDS011;38806;51.554;5.704;2024-02-16T09:46:29;9.13;;;3.72;;
50495;SDS011;38806;51.554;5.704;2024-02-16T09:48:30;9.07;;;3.85;;
50495;SDS011;38806;51.554;5.704;2024-02-16T09:50:30;10.60;;;3.97;;
50495;SDS011;38806;51.554;5.704;2024-02-16T09:52:31;10.85;;;5.25;;
50495;SDS011;38806;51.554;5.704;2024-02-16T09:54:34;8.57;;;4.15;;
50495;SDS011;38806;51.554;5.704;2024-02-16T09:56:34;8.07;;;3.50;;
50495;SDS011;38806;51.554;5.704;2024-02-16T09:58:35;7.53;;;4.10;;
50495;SDS011;38806;51.554;5.704;2024-02-16T10:00:35;7.97;;;4.00;;
50495;SDS011;38806;51.554;5.704;2024-02-16T10:02:43;10.02;;;5.28;;
50495;SDS011;38806;51.554;5.704;2024-02-16T10:04:44;6.20;;;3.90;;
50495;SDS011;38806;51.554;5.704;2024-02-16T10:06:47;9.70;;;3.83;;
50495;SDS011;38806;51.554;5.704;2024-02-16T10:08:49;13.80;;;4.40;;
50495;SDS011;38806;51.554;5.704;2024-02-16T10:10:50;10.23;;;4.68;;
50495;SDS011;38806;51.554;5.704;2024-02-16T10:13:03;8.43;;;4.63;;
50495;SDS011;38806;51.554;5.704;2024-02-16T10:15:04;9.30;;;4.63;;
50495;SDS011;38806;51.554;5.704;2024-02-16T10:17:05;10.00;;;4.68;;
50495;SDS011;38806;51.554;5.704;2024-02-16T10:19:06;8.02;;;5.00;;
50495;SDS011;38806;51.554;5.704;2024-02-16T10:21:07;7.90;;;5.22;;
50495;SDS011;38806;51.554;5.704;2024-02-16T10:23:09;9.32;;;4.80;;
50495;SDS011;38806;51.554;5.704;2024-02-16T10:25:10;10.82;;;6.00;;
50495;SDS011;38806;51.554;5.704;2024-02-16T10:27:16;10.65;;;5.30;;
50495;SDS011;38806;51.554;5.704;2024-02-16T10:29:17;18.10;;;4.93;;
50495;SDS011;38806;51.554;5.704;2024-02-16T10:31:19;12.85;;;5.35;;
50495;SDS011;38806;51.554;5.704;2024-02-16T10:33:28;11.45;;;5.43;;
50495;SDS011;38806;51.554;5.704;2024-02-16T10:35:29;11.40;;;5.43;;
50495;SDS011;38806;51.554;5.704;2024-02-16T10:37:30;9.20;;;5.60;;
50495;SDS011;38806;51.554;5.704;2024-02-16T10:39:30;7.65;;;4.82;;
50495;SDS011;38806;51.554;5.704;2024-02-16T10:41:34;12.50;;;5.55;;
50495;SDS011;38806;51.554;5.704;2024-02-16T10:43:35;9.70;;;5.10;;
50495;SDS011;38806;51.554;5.704;2024-02-16T10:45:36;10.63;;;5.20;;
50495;SDS011;38806;51.554;5.704;2024-02-16T10:47:36;9.43;;;4.85;;
50495;SDS011;38806;51.554;5.704;2024-02-16T10:49:36;12.73;;;5.83;;
50495;SDS011;38806;51.554;5.704;2024-02-16T10:51:46;9.90;;;5.18;;
50495;SDS011;38806;51.554;5.704;2024-02-16T10:53:46;10.38;;;5.22;;
50495;SDS011;38806;51.554;5.704;2024-02-16T10:55:47;10.65;;;5.75;;
50495;SDS011;38806;51.554;5.704;2024-02-16T10:57:47;11.82;;;6.40;;
50495;SDS011;38806;51.554;5.704;2024-02-16T10:59:52;11.35;;;5.47;;
50495;SDS011;38806;51.554;5.704;2024-02-16T11:01:59;11.20;;;5.22;;
50495;SDS011;38806;51.554;5.704;2024-02-16T11:04:03;8.73;;;5.00;;
50495;SDS011;38806;51.554;5.704;2024-02-16T11:06:11;17.48;;;5.38;;
50495;SDS011;38806;51.554;5.704;2024-02-16T11:08:15;10.68;;;6.15;;
50495;SDS011;38806;51.554;5.704;2024-02-16T11:10:15;11.15;;;5.55;;
50495;SDS011;38806;51.554;5.704;2024-02-16T11:12:15;10.93;;;6.90;;
50495;SDS011;38806;51.554;5.704;2024-02-16T11:14:16;10.55;;;5.55;;
50495;SDS011;38806;51.554;5.704;2024-02-16T11:16:17;12.20;;;5.40;;
50495;SDS011;38806;51.554;5.704;2024-02-16T11:18:17;14.98;;;7.00;;
50495;SDS011;38806;51.554;5.704;2024-02-16T11:20:17;12.93;;;6.27;;
50495;SDS011;38806;51.554;5.704;2024-02-16T11:22:19;10.35;;;5.65;;
50495;SDS011;38806;51.554;5.704;2024-02-16T11:24:19;11.32;;;5.57;;
50495;SDS011;38806;51.554;5.704;2024-02-16T11:26:23;15.15;;;7.22;;
50495;SDS011;38806;51.554;5.704;2024-02-16T11:28:23;13.97;;;5.90;;
50495;SDS011;38806;51.554;5.704;2024-02-16T11:30:25;8.57;;;4.47;;
50495;SDS011;38806;51.554;5.704;2024-02-16T11:32:25;13.65;;;6.18;;
50495;SDS011;38806;51.554;5.704;2024-02-16T11:34:25;12.20;;;6.30;;
50495;SDS011;38806;51.554;5.704;2024-02-16T11:36:26;11.65;;;5.53;;
50495;SDS011;38806;51.554;5.704;2024-02-16T11:38:27;10.55;;;6.22;;
50495;SDS011;38806;51.554;5.704;2024-02-16T11:40:27;15.10;;;6.40;;
50495;SDS011;38806;51.554;5.704;2024-02-16T11:42:27;11.80;;;6.43;;
50495;SDS011;38806;51.554;5.704;2024-02-16T11:44:31;11.77;;;6.25;;
50495;SDS011;38806;51.554;5.704;2024-02-16T11:46:32;12.65;;;6.38;;
50495;SDS011;38806;51.554;5.704;2024-02-16T11:48:32;14.63;;;6.45;;
50495;SDS011;38806;51.554;5.704;2024-02-16T11:50:32;10.65;;;6.20;;
50495;SDS011;38806;51.554;5.704;2024-02-16T11:52:32;12.23;;;6.60;;
50495;SDS011;38806;51.554;5.704;2024-02-16T11:54:34;12.38;;;6.72;;
50495;SDS011;38806;51.554;5.704;2024-02-16T11:56:36;9.45;;;6.15;;
50495;SDS011;38806;51.554;5.704;2024-02-16T11:58:39;13.02;;;7.35;;
50495;SDS011;38806;51.554;5.704;2024-02-16T12:00:39;12.45;;;7.38;;
50495;SDS011;38806;51.554;5.704;2024-02-16T12:02:41;12.48;;;6.53;;
50495;SDS011;38806;51.554;5.704;2024-02-16T12:04:41;11.75;;;6.65;;
50495;SDS011;38806;51.554;5.704;2024-02-16T12:06:41;15.55;;;7.57;;